Wilkie, Canada
Current Conditions -  °F | °C
As of 9:00 AM on Wednesday 26 Nov 2014 (Local Time) from CYQW Reporting Station
Light Snow Light Snow  
Wind Chill: -20°   Ceiling: 1700
Heat Index: -2°   Visibility: 9mi
Dew Point: -6°   Wind: 12mph
Humidity: 85%   Direction: 110°ESE
Pressure: 30.36"   Gusts: NA
Location:  52.42°N, 108.7°W
Report Text: CYQW 261500Z AUTO 11010KT 9SM -SN OVC017 M19/M21 A3036 RMK SLP335
Loading
Personal Weather Stations






























Interactive Weather Map New forecast layout! Learn more

10-Day Weather Forecast

Advertisements
Track Severe Weather on mobile